S/V Antara — MPHD3 — position and weather

sailwx.info

Track history (hours):
 
Tides and Currents Weather Stations Pressure Air Temp Water Temp Dewpoint Dewpoint Depression Visibility Wind Speed Wind Dir Waves Ship Positions

S/V Antara

Last reported at 2017-Sep-11 17:10 UTC. Time now 2017-Sep-26 16:39 UTC.
Position N 40°51' E 029°16'.
Warning: this ship's position is 14 days out of date.

Length 47 m; draft 4 m.

Type: Sailing vessel. MMSI: 235011760.

Date/timePositionNaut miles runAvg speedWind from/ knotsBaromVisibWave heightAir tempDewpointWater temp
2017-Sep-11 17:10N 40°51' E 029°16'0 0.0
2017-Sep-11 17:00N 40°51' E 029°16'0 0.0
2017-Sep-11 16:30N 40°51' E 029°16'0 0.0
2017-Sep-11 16:00N 40°51' E 029°16'0 0.1
2017-Sep-11 15:30N 40°51' E 029°16'0 0.2
2017-Sep-11 15:00N 40°51' E 029°16'0 0.0
2017-Sep-11 14:30N 40°51' E 029°16'0 0.0
2017-Sep-11 14:01N 40°51' E 029°16'0 0.0
2017-Sep-11 13:31N 40°51' E 029°16'0 0.1
2017-Sep-11 13:00N 40°51' E 029°16'3 6.4
2017-Sep-11 12:30N 40°51' E 029°12'3 5.7
2017-Sep-11 11:57N 40°51' E 029°16'0 0.0
2017-Sep-11 11:27N 40°51' E 029°16'0 0.0
2017-Sep-11 10:57N 40°51' E 029°16'0 0.0
2017-Sep-11 10:28N 40°51' E 029°16'0 0.0
2017-Sep-11 09:58N 40°51' E 029°16'0 0.0
2017-Sep-11 09:22N 40°51' E 029°16'0 0.0
2017-Sep-11 08:59N 40°51' E 029°16'0 0.0
2017-Sep-11 08:17N 40°51' E 029°16'0 0.0
2017-Sep-11 07:59N 40°51' E 029°16'0 0.0
2017-Sep-11 07:30N 40°51' E 029°16'0 0.0
2017-Sep-11 06:54N 40°51' E 029°16'0 0.0
2017-Sep-11 06:30N 40°51' E 029°16'0 0.0
2017-Sep-11 05:31N 40°51' E 029°16'0 0.0
2017-Sep-11 05:13N 40°51' E 029°16'0 0.0
2017-Sep-11 04:55N 40°51' E 029°16'0 0.0
2017-Sep-11 04:26N 40°51' E 029°16'0 0.0
2017-Sep-11 03:56N 40°51' E 029°16'0 0.0
2017-Sep-11 03:15N 40°51' E 029°16'0 0.0
2017-Sep-11 02:57N 40°51' E 029°16'0 0.0
2017-Sep-11 02:27N 40°51' E 029°16'0 0.0
2017-Sep-11 01:57N 40°51' E 029°16'0 0.0
2017-Sep-11 00:34N 40°51' E 029°16'0 0.0
2017-Sep-11 00:28N 40°51' E 029°16'0 0.0
2017-Sep-10 23:53N 40°51' E 029°16'0 0.0
2017-Sep-10 23:29N 40°51' E 029°16'0 0.0
2017-Sep-10 22:59N 40°51' E 029°16'0 0.0
2017-Sep-10 22:30N 40°51' E 029°16'0 0.0
2017-Sep-10 22:00N 40°51' E 029°16'0 0.0
2017-Sep-10 21:24N 40°51' E 029°16'0 0.0
2017-Sep-10 20:55N 40°51' E 029°16'0 0.0
2017-Sep-10 20:13N 40°51' E 029°16'0 0.0
2017-Sep-10 19:55N 40°51' E 029°16'0 0.0
2017-Sep-10 19:20N 40°51' E 029°16'0 0.0
2017-Sep-10 18:56N 40°51' E 029°16'0 0.0
2017-Sep-10 18:26N 40°51' E 029°16'0 0.0
2017-Sep-10 17:45N 40°51' E 029°16'0 0.0
2017-Sep-10 17:21N 40°51' E 029°16'0 0.0
2017-Sep-10 16:46N 40°51' E 029°16'0 0.0
2017-Sep-10 16:28N 40°51' E 029°16'0 0.0
2017-Sep-10 15:58N 40°51' E 029°16'0 0.0
2017-Sep-10 15:28N 40°51' E 029°16'0 0.0
2017-Sep-10 14:59N 40°51' E 029°16'0 0.0
2017-Sep-10 13:59N 40°51' E 029°16'0 0.0
2017-Sep-10 13:30N 40°51' E 029°16'0 0.0
2017-Sep-10 13:00N 40°51' E 029°16'0 0.0
2017-Sep-10 12:30N 40°51' E 029°16'0 0.0
2017-Sep-10 11:55N 40°51' E 029°16'0 0.0
2017-Sep-10 11:25N 40°51' E 029°16'0 0.0
2017-Sep-10 10:55N 40°51' E 029°16'0 0.0
2017-Sep-10 10:20N 40°51' E 029°16'0 0.0
2017-Sep-10 09:56N 40°51' E 029°16'0 0.0
2017-Sep-10 09:26N 40°51' E 029°16'0 0.0
2017-Sep-10 08:51N 40°51' E 029°16'0 0.0
2017-Sep-10 08:27N 40°51' E 029°16'0 0.0
2017-Sep-10 07:52N 40°51' E 029°16'0 0.0
2017-Sep-10 07:30N 40°51' E 029°16'0 0.0
2017-Sep-10 07:00N 40°51' E 029°16'0 0.1
2017-Sep-10 06:30N 40°51' E 029°16'4 8.0
2017-Sep-10 06:00N 40°50' E 029°11'510.6
2017-Sep-10 05:30N 40°50' E 029°04'510.3
2017-Sep-10 05:00N 40°49' E 028°57'4 8.3
2017-Sep-10 04:30N 40°49' E 028°52'8 7.8
2017-Sep-10 03:31N 40°48' E 028°42'0 7.1
2017-Sep-10 03:30N 40°48' E 028°42'38 8.5
2017-Sep-09 23:01N 40°44' E 027°51'0 9.3
2017-Sep-09 23:00N 40°44' E 027°51'4 8.8
2017-Sep-09 22:29N 40°43' E 027°45'82 8.7
2017-Sep-09 13:02N 40°01' E 026°13'0 9.1
2017-Sep-09 12:58N 40°01' E 026°12'12 9.5
2017-Sep-09 11:40N 39°57' E 025°57'2 9.8
2017-Sep-09 11:30N 39°56' E 025°55'5 9.7
2017-Sep-09 11:00N 39°54' E 025°49'5 9.6
2017-Sep-09 10:28N 39°52' E 025°43'30 1.0
2017-Sep-08 04:44N 39°53' E 025°03'0 0.0
2017-Sep-08 04:26N 39°53' E 025°03'0 0.0
2017-Sep-07 23:17N 39°53' E 025°03'0 0.0
2017-Sep-07 22:53N 39°53' E 025°03'0 0.0
2017-Sep-07 15:54N 39°53' E 025°03'0 0.0
2017-Sep-07 04:46N 39°53' E 025°03'0 0.0
2017-Sep-07 04:30N 39°53' E 025°03'0 0.0
2017-Sep-07 03:27N 39°53' E 025°03'4 7.6
2017-Sep-07 02:56N 39°51' E 024°59'510.6
2017-Sep-07 02:29N 39°49' E 024°54'510.7
2017-Sep-07 02:00N 39°46' E 024°48'510.5
2017-Sep-07 01:30N 39°43' E 024°42'610.4
2017-Sep-07 00:54N 39°41' E 024°35'1611.1
2017-Sep-06 23:25N 39°34' E 024°15'511.1
2017-Sep-06 23:00N 39°31' E 024°10'510.9
2017-Sep-06 22:30N 39°28' E 024°05'910.9
2017-Sep-06 21:43N 39°22' E 023°57'210.7
2017-Sep-06 21:30N 39°21' E 023°54'  
Track history (hours):
 
Tides and Currents Weather Stations Pressure Air Temp Water Temp Dewpoint Dewpoint Depression Visibility Wind Speed Wind Dir Waves Ship Positions

S/V Antara

Last reported at 2017-Sep-11 17:10 UTC. Time now 2017-Sep-26 16:39 UTC.
Position N 40°51' E 029°16'.
Warning: this ship's position is 14 days out of date.

Length 47 m; draft 4 m.

Type: Sailing vessel. MMSI: 235011760.

Date/timePositionNaut miles runAvg speedWind from/ knotsBaromVisibWave heightAir tempDewpointWater temp
2017-Sep-11 17:10N 40°51' E 029°16'0 0.0
2017-Sep-11 17:00N 40°51' E 029°16'0 0.0
2017-Sep-11 16:30N 40°51' E 029°16'0 0.0
2017-Sep-11 16:00N 40°51' E 029°16'0 0.1
2017-Sep-11 15:30N 40°51' E 029°16'0 0.2
2017-Sep-11 15:00N 40°51' E 029°16'0 0.0
2017-Sep-11 14:30N 40°51' E 029°16'0 0.0
2017-Sep-11 14:01N 40°51' E 029°16'0 0.0
2017-Sep-11 13:31N 40°51' E 029°16'0 0.1
2017-Sep-11 13:00N 40°51' E 029°16'3 6.4
2017-Sep-11 12:30N 40°51' E 029°12'3 5.7
2017-Sep-11 11:57N 40°51' E 029°16'0 0.0
2017-Sep-11 11:27N 40°51' E 029°16'0 0.0
2017-Sep-11 10:57N 40°51' E 029°16'0 0.0
2017-Sep-11 10:28N 40°51' E 029°16'0 0.0
2017-Sep-11 09:58N 40°51' E 029°16'0 0.0
2017-Sep-11 09:22N 40°51' E 029°16'0 0.0
2017-Sep-11 08:59N 40°51' E 029°16'0 0.0
2017-Sep-11 08:17N 40°51' E 029°16'0 0.0
2017-Sep-11 07:59N 40°51' E 029°16'0 0.0
2017-Sep-11 07:30N 40°51' E 029°16'0 0.0
2017-Sep-11 06:54N 40°51' E 029°16'0 0.0
2017-Sep-11 06:30N 40°51' E 029°16'0 0.0
2017-Sep-11 05:31N 40°51' E 029°16'0 0.0
2017-Sep-11 05:13N 40°51' E 029°16'0 0.0
2017-Sep-11 04:55N 40°51' E 029°16'0 0.0
2017-Sep-11 04:26N 40°51' E 029°16'0 0.0
2017-Sep-11 03:56N 40°51' E 029°16'0 0.0
2017-Sep-11 03:15N 40°51' E 029°16'0 0.0
2017-Sep-11 02:57N 40°51' E 029°16'0 0.0
2017-Sep-11 02:27N 40°51' E 029°16'0 0.0
2017-Sep-11 01:57N 40°51' E 029°16'0 0.0
2017-Sep-11 00:34N 40°51' E 029°16'0 0.0
2017-Sep-11 00:28N 40°51' E 029°16'0 0.0
2017-Sep-10 23:53N 40°51' E 029°16'0 0.0
2017-Sep-10 23:29N 40°51' E 029°16'0 0.0
2017-Sep-10 22:59N 40°51' E 029°16'0 0.0
2017-Sep-10 22:30N 40°51' E 029°16'0 0.0
2017-Sep-10 22:00N 40°51' E 029°16'0 0.0
2017-Sep-10 21:24N 40°51' E 029°16'0 0.0
2017-Sep-10 20:55N 40°51' E 029°16'0 0.0
2017-Sep-10 20:13N 40°51' E 029°16'0 0.0
2017-Sep-10 19:55N 40°51' E 029°16'0 0.0
2017-Sep-10 19:20N 40°51' E 029°16'0 0.0
2017-Sep-10 18:56N 40°51' E 029°16'0 0.0
2017-Sep-10 18:26N 40°51' E 029°16'0 0.0
2017-Sep-10 17:45N 40°51' E 029°16'0 0.0
2017-Sep-10 17:21N 40°51' E 029°16'0 0.0
2017-Sep-10 16:46N 40°51' E 029°16'0 0.0
2017-Sep-10 16:28N 40°51' E 029°16'0 0.0
2017-Sep-10 15:58N 40°51' E 029°16'0 0.0
2017-Sep-10 15:28N 40°51' E 029°16'0 0.0
2017-Sep-10 14:59N 40°51' E 029°16'0 0.0
2017-Sep-10 13:59N 40°51' E 029°16'0 0.0
2017-Sep-10 13:30N 40°51' E 029°16'0 0.0
2017-Sep-10 13:00N 40°51' E 029°16'0 0.0
2017-Sep-10 12:30N 40°51' E 029°16'0 0.0
2017-Sep-10 11:55N 40°51' E 029°16'0 0.0
2017-Sep-10 11:25N 40°51' E 029°16'0 0.0
2017-Sep-10 10:55N 40°51' E 029°16'0 0.0
2017-Sep-10 10:20N 40°51' E 029°16'0 0.0
2017-Sep-10 09:56N 40°51' E 029°16'0 0.0
2017-Sep-10 09:26N 40°51' E 029°16'0 0.0
2017-Sep-10 08:51N 40°51' E 029°16'0 0.0
2017-Sep-10 08:27N 40°51' E 029°16'0 0.0
2017-Sep-10 07:52N 40°51' E 029°16'0 0.0
2017-Sep-10 07:30N 40°51' E 029°16'0 0.0
2017-Sep-10 07:00N 40°51' E 029°16'0 0.1
2017-Sep-10 06:30N 40°51' E 029°16'4 8.0
2017-Sep-10 06:00N 40°50' E 029°11'510.6
2017-Sep-10 05:30N 40°50' E 029°04'510.3
2017-Sep-10 05:00N 40°49' E 028°57'4 8.3
2017-Sep-10 04:30N 40°49' E 028°52'8 7.8
2017-Sep-10 03:31N 40°48' E 028°42'0 7.1
2017-Sep-10 03:30N 40°48' E 028°42'38 8.5
2017-Sep-09 23:01N 40°44' E 027°51'0 9.3
2017-Sep-09 23:00N 40°44' E 027°51'4 8.8
2017-Sep-09 22:29N 40°43' E 027°45'82 8.7
2017-Sep-09 13:02N 40°01' E 026°13'0 9.1
2017-Sep-09 12:58N 40°01' E 026°12'12 9.5
2017-Sep-09 11:40N 39°57' E 025°57'2 9.8
2017-Sep-09 11:30N 39°56' E 025°55'5 9.7
2017-Sep-09 11:00N 39°54' E 025°49'5 9.6
2017-Sep-09 10:28N 39°52' E 025°43'30 1.0
2017-Sep-08 04:44N 39°53' E 025°03'0 0.0
2017-Sep-08 04:26N 39°53' E 025°03'0 0.0
2017-Sep-07 23:17N 39°53' E 025°03'0 0.0
2017-Sep-07 22:53N 39°53' E 025°03'0 0.0
2017-Sep-07 15:54N 39°53' E 025°03'0 0.0
2017-Sep-07 04:46N 39°53' E 025°03'0 0.0
2017-Sep-07 04:30N 39°53' E 025°03'0 0.0
2017-Sep-07 03:27N 39°53' E 025°03'4 7.6
2017-Sep-07 02:56N 39°51' E 024°59'510.6
2017-Sep-07 02:29N 39°49' E 024°54'510.7
2017-Sep-07 02:00N 39°46' E 024°48'510.5
2017-Sep-07 01:30N 39°43' E 024°42'610.4
2017-Sep-07 00:54N 39°41' E 024°35'1611.1
2017-Sep-06 23:25N 39°34' E 024°15'511.1
2017-Sep-06 23:00N 39°31' E 024°10'510.9
2017-Sep-06 22:30N 39°28' E 024°05'910.9
2017-Sep-06 21:43N 39°22' E 023°57'210.7
2017-Sep-06 21:30N 39°21' E 023°54'  

Dump ship's entire track history